sensor_id;sensor_type;location;lat;lon;timestamp;P1;durP1;ratioP1;P2;durP2;ratioP2
12151;SDS011;6139;51.274;7.128;2022-11-21T00:00:00;14.47;;;10.33;;
12151;SDS011;6139;51.274;7.128;2022-11-21T00:01:11;14.80;;;9.50;;
12151;SDS011;6139;51.274;7.128;2022-11-21T00:02:15;13.47;;;9.13;;
12151;SDS011;6139;51.274;7.128;2022-11-21T00:03:16;14.77;;;9.27;;
12151;SDS011;6139;51.274;7.128;2022-11-21T00:04:18;13.17;;;9.10;;
12151;SDS011;6139;51.274;7.128;2022-11-21T00:05:19;15.17;;;10.20;;
12151;SDS011;6139;51.274;7.128;2022-11-21T00:06:21;15.43;;;10.33;;
12151;SDS011;6139;51.274;7.128;2022-11-21T00:07:22;15.60;;;10.67;;
12151;SDS011;6139;51.274;7.128;2022-11-21T00:08:24;14.73;;;10.47;;
12151;SDS011;6139;51.274;7.128;2022-11-21T00:09:25;22.47;;;11.33;;
12151;SDS011;6139;51.274;7.128;2022-11-21T00:10:27;14.87;;;10.77;;
12151;SDS011;6139;51.274;7.128;2022-11-21T00:11:30;16.87;;;10.83;;
12151;SDS011;6139;51.274;7.128;2022-11-21T00:12:32;18.03;;;10.67;;
12151;SDS011;6139;51.274;7.128;2022-11-21T00:13:33;14.60;;;10.73;;
12151;SDS011;6139;51.274;7.128;2022-11-21T00:14:35;16.67;;;11.50;;
12151;SDS011;6139;51.274;7.128;2022-11-21T00:15:36;17.93;;;11.27;;
12151;SDS011;6139;51.274;7.128;2022-11-21T00:16:38;16.40;;;11.07;;
12151;SDS011;6139;51.274;7.128;2022-11-21T00:17:39;16.47;;;11.87;;
12151;SDS011;6139;51.274;7.128;2022-11-21T00:18:40;18.87;;;11.93;;
12151;SDS011;6139;51.274;7.128;2022-11-21T00:19:43;19.00;;;11.83;;
12151;SDS011;6139;51.274;7.128;2022-11-21T00:20:45;18.47;;;11.43;;
12151;SDS011;6139;51.274;7.128;2022-11-21T00:21:46;13.30;;;10.23;;
12151;SDS011;6139;51.274;7.128;2022-11-21T00:22:48;14.00;;;10.13;;
12151;SDS011;6139;51.274;7.128;2022-11-21T00:23:50;14.53;;;10.57;;
12151;SDS011;6139;51.274;7.128;2022-11-21T00:24:53;13.77;;;9.93;;
12151;SDS011;6139;51.274;7.128;2022-11-21T00:25:54;16.20;;;10.27;;
12151;SDS011;6139;51.274;7.128;2022-11-21T00:26:57;14.40;;;10.27;;
12151;SDS011;6139;51.274;7.128;2022-11-21T00:27:58;15.50;;;9.90;;
12151;SDS011;6139;51.274;7.128;2022-11-21T00:29:00;12.57;;;9.90;;
12151;SDS011;6139;51.274;7.128;2022-11-21T00:30:01;14.77;;;10.90;;
12151;SDS011;6139;51.274;7.128;2022-11-21T00:31:04;14.30;;;10.40;;
12151;SDS011;6139;51.274;7.128;2022-11-21T00:32:05;13.70;;;10.23;;
12151;SDS011;6139;51.274;7.128;2022-11-21T00:33:07;14.87;;;10.07;;
12151;SDS011;6139;51.274;7.128;2022-11-21T00:34:08;13.87;;;10.60;;
12151;SDS011;6139;51.274;7.128;2022-11-21T00:35:10;14.90;;;10.30;;
12151;SDS011;6139;51.274;7.128;2022-11-21T00:36:11;15.50;;;10.50;;
12151;SDS011;6139;51.274;7.128;2022-11-21T00:37:13;16.77;;;11.27;;
12151;SDS011;6139;51.274;7.128;2022-11-21T00:38:14;14.13;;;10.20;;
12151;SDS011;6139;51.274;7.128;2022-11-21T00:39:16;15.73;;;10.60;;
12151;SDS011;6139;51.274;7.128;2022-11-21T00:40:17;15.40;;;10.60;;
12151;SDS011;6139;51.274;7.128;2022-11-21T00:41:19;14.97;;;10.60;;
12151;SDS011;6139;51.274;7.128;2022-11-21T00:42:21;15.40;;;10.67;;
12151;SDS011;6139;51.274;7.128;2022-11-21T00:43:23;17.13;;;10.50;;
12151;SDS011;6139;51.274;7.128;2022-11-21T00:44:24;15.07;;;10.50;;
12151;SDS011;6139;51.274;7.128;2022-11-21T00:45:26;13.03;;;9.60;;
12151;SDS011;6139;51.274;7.128;2022-11-21T00:46:28;16.73;;;10.17;;
12151;SDS011;6139;51.274;7.128;2022-11-21T00:47:30;15.50;;;10.73;;
12151;SDS011;6139;51.274;7.128;2022-11-21T00:48:31;17.53;;;11.03;;
12151;SDS011;6139;51.274;7.128;2022-11-21T00:49:33;14.40;;;10.20;;
12151;SDS011;6139;51.274;7.128;2022-11-21T00:50:34;15.63;;;10.93;;
12151;SDS011;6139;51.274;7.128;2022-11-21T00:51:36;17.03;;;11.50;;
12151;SDS011;6139;51.274;7.128;2022-11-21T00:52:37;16.57;;;11.43;;
12151;SDS011;6139;51.274;7.128;2022-11-21T00:53:39;17.93;;;11.60;;
12151;SDS011;6139;51.274;7.128;2022-11-21T00:54:40;17.13;;;11.63;;
12151;SDS011;6139;51.274;7.128;2022-11-21T00:55:42;17.83;;;11.87;;
12151;SDS011;6139;51.274;7.128;2022-11-21T00:56:43;18.53;;;11.87;;
12151;SDS011;6139;51.274;7.128;2022-11-21T00:57:46;19.63;;;12.03;;
12151;SDS011;6139;51.274;7.128;2022-11-21T00:58:47;16.30;;;11.50;;
12151;SDS011;6139;51.274;7.128;2022-11-21T00:59:49;15.30;;;11.27;;
12151;SDS011;6139;51.274;7.128;2022-11-21T01:00:50;18.10;;;12.07;;
12151;SDS011;6139;51.274;7.128;2022-11-21T01:01:52;14.83;;;11.30;;
12151;SDS011;6139;51.274;7.128;2022-11-21T01:02:53;19.67;;;12.57;;
12151;SDS011;6139;51.274;7.128;2022-11-21T01:03:56;32.73;;;13.10;;
12151;SDS011;6139;51.274;7.128;2022-11-21T01:04:57;30.37;;;13.63;;
12151;SDS011;6139;51.274;7.128;2022-11-21T01:06:00;36.17;;;13.70;;
12151;SDS011;6139;51.274;7.128;2022-11-21T01:07:02;27.37;;;13.17;;
12151;SDS011;6139;51.274;7.128;2022-11-21T01:08:04;23.43;;;14.47;;
12151;SDS011;6139;51.274;7.128;2022-11-21T01:09:05;32.50;;;14.63;;
12151;SDS011;6139;51.274;7.128;2022-11-21T01:10:07;25.23;;;14.60;;
12151;SDS011;6139;51.274;7.128;2022-11-21T01:11:08;24.30;;;14.50;;
12151;SDS011;6139;51.274;7.128;2022-11-21T01:12:12;23.27;;;13.83;;
12151;SDS011;6139;51.274;7.128;2022-11-21T01:13:14;25.67;;;15.27;;
12151;SDS011;6139;51.274;7.128;2022-11-21T01:14:16;30.03;;;15.50;;
12151;SDS011;6139;51.274;7.128;2022-11-21T01:15:17;23.97;;;13.63;;
12151;SDS011;6139;51.274;7.128;2022-11-21T01:16:20;29.47;;;15.03;;
12151;SDS011;6139;51.274;7.128;2022-11-21T01:17:22;27.47;;;15.40;;
12151;SDS011;6139;51.274;7.128;2022-11-21T01:18:24;28.67;;;16.03;;
12151;SDS011;6139;51.274;7.128;2022-11-21T01:19:25;36.30;;;17.30;;
12151;SDS011;6139;51.274;7.128;2022-11-21T01:20:27;28.27;;;15.23;;
12151;SDS011;6139;51.274;7.128;2022-11-21T01:21:29;28.47;;;15.83;;
12151;SDS011;6139;51.274;7.128;2022-11-21T01:22:32;27.17;;;16.07;;
12151;SDS011;6139;51.274;7.128;2022-11-21T01:23:33;37.37;;;15.87;;
12151;SDS011;6139;51.274;7.128;2022-11-21T01:24:35;33.93;;;16.83;;
12151;SDS011;6139;51.274;7.128;2022-11-21T01:25:36;26.27;;;16.00;;
12151;SDS011;6139;51.274;7.128;2022-11-21T01:26:38;28.90;;;15.87;;
12151;SDS011;6139;51.274;7.128;2022-11-21T01:27:39;36.67;;;18.03;;
12151;SDS011;6139;51.274;7.128;2022-11-21T01:28:42;27.27;;;15.87;;
12151;SDS011;6139;51.274;7.128;2022-11-21T01:29:44;32.83;;;17.67;;
12151;SDS011;6139;51.274;7.128;2022-11-21T01:30:45;28.33;;;16.50;;
12151;SDS011;6139;51.274;7.128;2022-11-21T01:31:46;36.03;;;17.30;;
12151;SDS011;6139;51.274;7.128;2022-11-21T01:32:49;28.33;;;17.00;;
12151;SDS011;6139;51.274;7.128;2022-11-21T01:33:50;27.20;;;16.73;;
12151;SDS011;6139;51.274;7.128;2022-11-21T01:34:52;30.73;;;16.97;;
12151;SDS011;6139;51.274;7.128;2022-11-21T01:35:53;31.53;;;15.77;;
12151;SDS011;6139;51.274;7.128;2022-11-21T01:36:55;30.40;;;16.33;;
12151;SDS011;6139;51.274;7.128;2022-11-21T01:37:56;27.40;;;17.13;;
12151;SDS011;6139;51.274;7.128;2022-11-21T01:38:58;27.97;;;16.83;;
12151;SDS011;6139;51.274;7.128;2022-11-21T01:40:00;30.57;;;16.87;;
12151;SDS011;6139;51.274;7.128;2022-11-21T01:41:02;27.63;;;17.67;;
12151;SDS011;6139;51.274;7.128;2022-11-21T01:42:03;30.33;;;17.00;;
12151;SDS011;6139;51.274;7.128;2022-11-21T01:43:08;32.17;;;18.60;;
12151;SDS011;6139;51.274;7.128;2022-11-21T01:44:16;29.17;;;17.77;;
12151;SDS011;6139;51.274;7.128;2022-11-21T01:46:50;26.60;;;17.00;;
12151;SDS011;6139;51.274;7.128;2022-11-21T01:47:53;29.93;;;17.07;;
12151;SDS011;6139;51.274;7.128;2022-11-21T01:48:56;27.57;;;16.93;;
12151;SDS011;6139;51.274;7.128;2022-11-21T01:50:00;30.90;;;17.63;;
12151;SDS011;6139;51.274;7.128;2022-11-21T01:51:03;28.70;;;16.57;;
12151;SDS011;6139;51.274;7.128;2022-11-21T01:52:08;29.00;;;17.30;;
12151;SDS011;6139;51.274;7.128;2022-11-21T01:53:14;26.13;;;16.70;;
12151;SDS011;6139;51.274;7.128;2022-11-21T01:54:16;28.97;;;17.90;;
12151;SDS011;6139;51.274;7.128;2022-11-21T01:55:20;29.43;;;18.20;;
12151;SDS011;6139;51.274;7.128;2022-11-21T01:56:22;28.93;;;17.60;;
12151;SDS011;6139;51.274;7.128;2022-11-21T01:57:25;27.27;;;17.23;;
12151;SDS011;6139;51.274;7.128;2022-11-21T01:58:31;29.87;;;17.60;;
12151;SDS011;6139;51.274;7.128;2022-11-21T01:59:36;30.53;;;16.77;;
12151;SDS011;6139;51.274;7.128;2022-11-21T02:00:41;25.90;;;16.70;;
12151;SDS011;6139;51.274;7.128;2022-11-21T02:01:45;29.30;;;16.87;;
12151;SDS011;6139;51.274;7.128;2022-11-21T02:02:50;27.40;;;16.50;;
12151;SDS011;6139;51.274;7.128;2022-11-21T02:03:53;32.60;;;16.90;;
12151;SDS011;6139;51.274;7.128;2022-11-21T02:04:57;24.40;;;15.47;;
12151;SDS011;6139;51.274;7.128;2022-11-21T02:06:00;28.73;;;16.37;;
12151;SDS011;6139;51.274;7.128;2022-11-21T02:07:03;23.40;;;15.00;;
12151;SDS011;6139;51.274;7.128;2022-11-21T02:08:06;26.47;;;14.63;;
12151;SDS011;6139;51.274;7.128;2022-11-21T02:09:13;25.37;;;15.40;;
12151;SDS011;6139;51.274;7.128;2022-11-21T02:10:15;21.57;;;14.83;;
12151;SDS011;6139;51.274;7.128;2022-11-21T02:11:19;24.37;;;14.80;;
12151;SDS011;6139;51.274;7.128;2022-11-21T02:12:28;24.80;;;15.73;;
12151;SDS011;6139;51.274;7.128;2022-11-21T02:13:32;25.73;;;16.10;;
12151;SDS011;6139;51.274;7.128;2022-11-21T02:14:36;26.50;;;15.40;;
12151;SDS011;6139;51.274;7.128;2022-11-21T02:15:39;29.60;;;15.67;;
12151;SDS011;6139;51.274;7.128;2022-11-21T02:16:41;33.40;;;16.53;;
12151;SDS011;6139;51.274;7.128;2022-11-21T02:17:43;26.10;;;15.60;;
12151;SDS011;6139;51.274;7.128;2022-11-21T02:18:44;26.50;;;14.77;;
12151;SDS011;6139;51.274;7.128;2022-11-21T02:19:48;28.63;;;15.77;;
12151;SDS011;6139;51.274;7.128;2022-11-21T02:20:55;35.50;;;16.30;;
12151;SDS011;6139;51.274;7.128;2022-11-21T02:22:01;31.53;;;16.27;;
12151;SDS011;6139;51.274;7.128;2022-11-21T02:23:08;25.70;;;16.33;;
12151;SDS011;6139;51.274;7.128;2022-11-21T02:24:19;28.20;;;16.73;;
12151;SDS011;6139;51.274;7.128;2022-11-21T02:25:30;28.53;;;16.83;;
12151;SDS011;6139;51.274;7.128;2022-11-21T02:26:33;28.13;;;15.70;;
12151;SDS011;6139;51.274;7.128;2022-11-21T02:27:35;26.03;;;14.77;;
12151;SDS011;6139;51.274;7.128;2022-11-21T02:28:37;30.87;;;17.40;;
12151;SDS011;6139;51.274;7.128;2022-11-21T02:29:39;32.53;;;16.97;;
12151;SDS011;6139;51.274;7.128;2022-11-21T02:30:41;29.33;;;16.30;;
12151;SDS011;6139;51.274;7.128;2022-11-21T02:31:43;36.93;;;17.33;;
12151;SDS011;6139;51.274;7.128;2022-11-21T02:32:45;34.30;;;17.27;;
12151;SDS011;6139;51.274;7.128;2022-11-21T02:33:47;30.80;;;16.37;;
12151;SDS011;6139;51.274;7.128;2022-11-21T02:34:48;29.37;;;17.30;;
12151;SDS011;6139;51.274;7.128;2022-11-21T02:35:56;29.30;;;17.80;;
12151;SDS011;6139;51.274;7.128;2022-11-21T02:36:59;30.30;;;17.07;;
12151;SDS011;6139;51.274;7.128;2022-11-21T02:38:02;30.40;;;17.53;;
12151;SDS011;6139;51.274;7.128;2022-11-21T02:39:08;28.80;;;16.03;;
12151;SDS011;6139;51.274;7.128;2022-11-21T02:40:14;34.80;;;19.80;;
12151;SDS011;6139;51.274;7.128;2022-11-21T02:41:21;31.00;;;17.10;;
12151;SDS011;6139;51.274;7.128;2022-11-21T02:42:27;28.27;;;16.70;;
12151;SDS011;6139;51.274;7.128;2022-11-21T02:43:33;29.97;;;17.10;;
12151;SDS011;6139;51.274;7.128;2022-11-21T02:44:39;28.50;;;15.77;;
12151;SDS011;6139;51.274;7.128;2022-11-21T02:45:48;30.03;;;16.27;;
12151;SDS011;6139;51.274;7.128;2022-11-21T02:46:50;29.40;;;17.37;;
12151;SDS011;6139;51.274;7.128;2022-11-21T02:47:52;27.73;;;15.77;;
12151;SDS011;6139;51.274;7.128;2022-11-21T02:48:55;28.17;;;17.33;;
12151;SDS011;6139;51.274;7.128;2022-11-21T02:49:59;29.33;;;16.83;;
12151;SDS011;6139;51.274;7.128;2022-11-21T02:51:09;29.70;;;17.00;;
12151;SDS011;6139;51.274;7.128;2022-11-21T02:52:10;29.33;;;16.50;;
12151;SDS011;6139;51.274;7.128;2022-11-21T02:53:13;29.47;;;16.97;;
12151;SDS011;6139;51.274;7.128;2022-11-21T02:54:15;25.40;;;16.53;;
12151;SDS011;6139;51.274;7.128;2022-11-21T02:55:17;28.67;;;17.67;;
12151;SDS011;6139;51.274;7.128;2022-11-21T02:56:20;29.57;;;16.97;;
12151;SDS011;6139;51.274;7.128;2022-11-21T02:57:21;29.57;;;16.70;;
12151;SDS011;6139;51.274;7.128;2022-11-21T02:58:23;28.83;;;16.43;;
12151;SDS011;6139;51.274;7.128;2022-11-21T02:59:24;30.67;;;17.33;;
12151;SDS011;6139;51.274;7.128;2022-11-21T03:00:26;28.97;;;17.10;;
12151;SDS011;6139;51.274;7.128;2022-11-21T03:01:27;27.87;;;16.57;;
12151;SDS011;6139;51.274;7.128;2022-11-21T03:02:29;31.47;;;17.73;;
12151;SDS011;6139;51.274;7.128;2022-11-21T03:03:30;29.53;;;17.63;;
12151;SDS011;6139;51.274;7.128;2022-11-21T03:04:32;26.83;;;16.60;;
12151;SDS011;6139;51.274;7.128;2022-11-21T03:05:33;30.30;;;16.80;;
12151;SDS011;6139;51.274;7.128;2022-11-21T03:06:36;27.93;;;17.50;;
12151;SDS011;6139;51.274;7.128;2022-11-21T03:07:37;30.67;;;17.50;;
12151;SDS011;6139;51.274;7.128;2022-11-21T03:08:39;26.60;;;16.23;;
12151;SDS011;6139;51.274;7.128;2022-11-21T03:09:40;25.90;;;15.67;;
12151;SDS011;6139;51.274;7.128;2022-11-21T03:10:42;31.33;;;17.87;;
12151;SDS011;6139;51.274;7.128;2022-11-21T03:11:44;33.17;;;17.40;;
12151;SDS011;6139;51.274;7.128;2022-11-21T03:12:46;27.60;;;16.00;;
12151;SDS011;6139;51.274;7.128;2022-11-21T03:13:47;27.80;;;15.73;;
12151;SDS011;6139;51.274;7.128;2022-11-21T03:14:49;28.27;;;15.90;;
12151;SDS011;6139;51.274;7.128;2022-11-21T03:15:50;31.47;;;17.20;;
12151;SDS011;6139;51.274;7.128;2022-11-21T03:16:54;30.50;;;16.30;;
12151;SDS011;6139;51.274;7.128;2022-11-21T03:17:55;28.10;;;16.00;;
12151;SDS011;6139;51.274;7.128;2022-11-21T03:18:57;27.63;;;17.20;;
12151;SDS011;6139;51.274;7.128;2022-11-21T03:19:59;26.97;;;15.90;;
12151;SDS011;6139;51.274;7.128;2022-11-21T03:21:01;27.80;;;15.77;;
12151;SDS011;6139;51.274;7.128;2022-11-21T03:22:02;27.33;;;15.13;;
12151;SDS011;6139;51.274;7.128;2022-11-21T03:23:04;24.23;;;14.87;;
12151;SDS011;6139;51.274;7.128;2022-11-21T03:24:05;24.90;;;15.30;;
12151;SDS011;6139;51.274;7.128;2022-11-21T03:25:08;27.80;;;15.57;;
12151;SDS011;6139;51.274;7.128;2022-11-21T03:26:09;25.93;;;13.47;;
12151;SDS011;6139;51.274;7.128;2022-11-21T03:27:12;24.43;;;14.43;;
12151;SDS011;6139;51.274;7.128;2022-11-21T03:28:13;26.80;;;14.33;;
12151;SDS011;6139;51.274;7.128;2022-11-21T03:29:15;24.27;;;15.60;;
12151;SDS011;6139;51.274;7.128;2022-11-21T03:30:16;24.83;;;13.90;;
12151;SDS011;6139;51.274;7.128;2022-11-21T03:31:18;26.00;;;14.80;;
12151;SDS011;6139;51.274;7.128;2022-11-21T03:32:19;25.30;;;14.37;;
12151;SDS011;6139;51.274;7.128;2022-11-21T03:33:21;22.30;;;14.37;;
12151;SDS011;6139;51.274;7.128;2022-11-21T03:34:22;23.83;;;14.20;;
12151;SDS011;6139;51.274;7.128;2022-11-21T03:35:24;22.40;;;13.97;;
12151;SDS011;6139;51.274;7.128;2022-11-21T03:36:25;25.20;;;14.53;;
12151;SDS011;6139;51.274;7.128;2022-11-21T03:37:27;23.40;;;13.70;;
12151;SDS011;6139;51.274;7.128;2022-11-21T03:38:28;23.47;;;14.57;;
12151;SDS011;6139;51.274;7.128;2022-11-21T03:39:30;24.50;;;13.83;;
12151;SDS011;6139;51.274;7.128;2022-11-21T03:40:31;27.40;;;13.93;;
12151;SDS011;6139;51.274;7.128;2022-11-21T03:41:33;24.67;;;14.97;;
12151;SDS011;6139;51.274;7.128;2022-11-21T03:42:36;24.90;;;14.87;;
12151;SDS011;6139;51.274;7.128;2022-11-21T03:43:38;26.17;;;15.13;;
12151;SDS011;6139;51.274;7.128;2022-11-21T03:44:38;24.13;;;14.00;;
12151;SDS011;6139;51.274;7.128;2022-11-21T03:45:40;29.27;;;15.37;;
12151;SDS011;6139;51.274;7.128;2022-11-21T03:46:43;28.17;;;15.30;;
12151;SDS011;6139;51.274;7.128;2022-11-21T03:47:46;26.07;;;14.97;;
12151;SDS011;6139;51.274;7.128;2022-11-21T03:48:47;26.47;;;15.93;;
12151;SDS011;6139;51.274;7.128;2022-11-21T03:49:49;26.73;;;15.37;;
12151;SDS011;6139;51.274;7.128;2022-11-21T03:50:50;32.10;;;17.00;;
12151;SDS011;6139;51.274;7.128;2022-11-21T03:51:52;30.70;;;16.03;;
12151;SDS011;6139;51.274;7.128;2022-11-21T03:52:53;28.73;;;16.57;;
12151;SDS011;6139;51.274;7.128;2022-11-21T03:53:55;27.13;;;16.03;;
12151;SDS011;6139;51.274;7.128;2022-11-21T03:54:56;31.30;;;16.73;;
12151;SDS011;6139;51.274;7.128;2022-11-21T03:55:58;29.77;;;17.47;;
12151;SDS011;6139;51.274;7.128;2022-11-21T03:56:59;30.77;;;17.33;;
12151;SDS011;6139;51.274;7.128;2022-11-21T03:58:02;33.20;;;16.80;;
12151;SDS011;6139;51.274;7.128;2022-11-21T03:59:03;30.00;;;17.43;;
12151;SDS011;6139;51.274;7.128;2022-11-21T04:00:06;33.10;;;18.10;;
12151;SDS011;6139;51.274;7.128;2022-11-21T04:01:08;32.53;;;17.37;;
12151;SDS011;6139;51.274;7.128;2022-11-21T04:02:12;36.67;;;18.50;;
12151;SDS011;6139;51.274;7.128;2022-11-21T04:03:13;29.90;;;17.73;;
12151;SDS011;6139;51.274;7.128;2022-11-21T04:04:15;35.30;;;18.23;;
12151;SDS011;6139;51.274;7.128;2022-11-21T04:05:16;32.37;;;18.40;;
12151;SDS011;6139;51.274;7.128;2022-11-21T04:06:19;37.17;;;19.57;;
12151;SDS011;6139;51.274;7.128;2022-11-21T04:07:21;28.30;;;17.23;;
12151;SDS011;6139;51.274;7.128;2022-11-21T04:08:23;27.87;;;16.50;;
12151;SDS011;6139;51.274;7.128;2022-11-21T04:09:25;32.30;;;17.30;;
12151;SDS011;6139;51.274;7.128;2022-11-21T04:10:27;32.73;;;18.00;;
12151;SDS011;6139;51.274;7.128;2022-11-21T04:11:28;33.47;;;18.23;;
12151;SDS011;6139;51.274;7.128;2022-11-21T04:12:30;28.70;;;16.53;;
12151;SDS011;6139;51.274;7.128;2022-11-21T04:13:32;37.93;;;18.00;;
12151;SDS011;6139;51.274;7.128;2022-11-21T04:14:34;33.60;;;16.73;;
12151;SDS011;6139;51.274;7.128;2022-11-21T04:15:35;31.57;;;17.93;;
12151;SDS011;6139;51.274;7.128;2022-11-21T04:16:37;33.83;;;18.13;;
12151;SDS011;6139;51.274;7.128;2022-11-21T04:17:38;33.20;;;18.23;;
12151;SDS011;6139;51.274;7.128;2022-11-21T04:18:40;33.97;;;18.80;;
12151;SDS011;6139;51.274;7.128;2022-11-21T04:19:40;31.10;;;17.13;;
12151;SDS011;6139;51.274;7.128;2022-11-21T04:20:42;31.27;;;16.30;;
12151;SDS011;6139;51.274;7.128;2022-11-21T04:21:43;30.43;;;17.23;;
12151;SDS011;6139;51.274;7.128;2022-11-21T04:22:45;31.17;;;18.50;;
12151;SDS011;6139;51.274;7.128;2022-11-21T04:23:46;32.20;;;17.37;;
12151;SDS011;6139;51.274;7.128;2022-11-21T04:24:48;27.03;;;15.87;;
12151;SDS011;6139;51.274;7.128;2022-11-21T04:25:49;31.77;;;17.53;;
12151;SDS011;6139;51.274;7.128;2022-11-21T04:26:52;28.50;;;16.87;;
12151;SDS011;6139;51.274;7.128;2022-11-21T04:27:54;33.87;;;17.43;;
12151;SDS011;6139;51.274;7.128;2022-11-21T04:28:57;32.50;;;18.00;;
12151;SDS011;6139;51.274;7.128;2022-11-21T04:29:59;28.00;;;15.10;;
12151;SDS011;6139;51.274;7.128;2022-11-21T04:31:01;27.40;;;16.20;;
12151;SDS011;6139;51.274;7.128;2022-11-21T04:32:03;29.50;;;16.70;;
12151;SDS011;6139;51.274;7.128;2022-11-21T04:33:04;33.40;;;17.97;;
12151;SDS011;6139;51.274;7.128;2022-11-21T04:34:07;34.20;;;16.63;;
12151;SDS011;6139;51.274;7.128;2022-11-21T04:35:08;30.53;;;17.40;;
12151;SDS011;6139;51.274;7.128;2022-11-21T04:36:10;29.93;;;16.90;;
12151;SDS011;6139;51.274;7.128;2022-11-21T04:37:11;30.27;;;17.33;;
12151;SDS011;6139;51.274;7.128;2022-11-21T04:38:13;29.90;;;17.37;;
12151;SDS011;6139;51.274;7.128;2022-11-21T04:39:14;32.70;;;17.93;;
12151;SDS011;6139;51.274;7.128;2022-11-21T04:40:16;29.33;;;17.57;;
12151;SDS011;6139;51.274;7.128;2022-11-21T04:41:17;33.57;;;17.53;;
12151;SDS011;6139;51.274;7.128;2022-11-21T04:42:19;30.73;;;17.20;;
12151;SDS011;6139;51.274;7.128;2022-11-21T04:43:20;28.00;;;16.73;;
12151;SDS011;6139;51.274;7.128;2022-11-21T04:44:24;34.83;;;17.73;;
12151;SDS011;6139;51.274;7.128;2022-11-21T04:45:24;28.43;;;17.33;;
12151;SDS011;6139;51.274;7.128;2022-11-21T04:46:26;31.37;;;17.27;;
12151;SDS011;6139;51.274;7.128;2022-11-21T04:47:28;29.03;;;17.10;;
12151;SDS011;6139;51.274;7.128;2022-11-21T04:48:29;25.93;;;16.90;;
12151;SDS011;6139;51.274;7.128;2022-11-21T04:49:31;32.37;;;18.90;;
12151;SDS011;6139;51.274;7.128;2022-11-21T04:50:33;30.87;;;17.67;;
12151;SDS011;6139;51.274;7.128;2022-11-21T04:51:34;32.37;;;17.70;;
12151;SDS011;6139;51.274;7.128;2022-11-21T04:52:35;30.77;;;18.03;;
12151;SDS011;6139;51.274;7.128;2022-11-21T04:53:37;31.80;;;17.77;;
12151;SDS011;6139;51.274;7.128;2022-11-21T04:54:38;33.73;;;18.77;;
12151;SDS011;6139;51.274;7.128;2022-11-21T04:55:40;32.53;;;17.93;;
12151;SDS011;6139;51.274;7.128;2022-11-21T04:56:41;33.90;;;18.17;;
12151;SDS011;6139;51.274;7.128;2022-11-21T04:57:43;34.87;;;19.40;;
12151;SDS011;6139;51.274;7.128;2022-11-21T04:58:45;32.33;;;18.63;;
12151;SDS011;6139;51.274;7.128;2022-11-21T04:59:48;29.70;;;16.63;;
12151;SDS011;6139;51.274;7.128;2022-11-21T05:00:49;31.87;;;18.23;;
12151;SDS011;6139;51.274;7.128;2022-11-21T05:01:51;31.17;;;18.53;;
12151;SDS011;6139;51.274;7.128;2022-11-21T05:02:52;30.37;;;17.43;;
12151;SDS011;6139;51.274;7.128;2022-11-21T05:03:54;30.87;;;18.80;;
12151;SDS011;6139;51.274;7.128;2022-11-21T05:04:55;35.87;;;18.07;;
12151;SDS011;6139;51.274;7.128;2022-11-21T05:05:57;34.23;;;19.20;;
12151;SDS011;6139;51.274;7.128;2022-11-21T05:06:58;33.40;;;18.57;;
12151;SDS011;6139;51.274;7.128;2022-11-21T05:08:00;30.47;;;17.90;;
12151;SDS011;6139;51.274;7.128;2022-11-21T05:09:01;29.70;;;17.97;;
12151;SDS011;6139;51.274;7.128;2022-11-21T05:10:03;32.10;;;18.80;;
12151;SDS011;6139;51.274;7.128;2022-11-21T05:11:05;31.00;;;17.73;;
12151;SDS011;6139;51.274;7.128;2022-11-21T05:12:25;29.50;;;17.97;;
12151;SDS011;6139;51.274;7.128;2022-11-21T05:13:45;30.77;;;17.63;;
12151;SDS011;6139;51.274;7.128;2022-11-21T05:14:46;31.13;;;17.77;;
12151;SDS011;6139;51.274;7.128;2022-11-21T05:15:54;31.73;;;18.23;;
12151;SDS011;6139;51.274;7.128;2022-11-21T05:16:57;28.40;;;17.47;;
12151;SDS011;6139;51.274;7.128;2022-11-21T05:17:58;31.63;;;18.03;;
12151;SDS011;6139;51.274;7.128;2022-11-21T05:19:00;33.47;;;17.57;;
12151;SDS011;6139;51.274;7.128;2022-11-21T05:20:01;32.77;;;18.10;;
12151;SDS011;6139;51.274;7.128;2022-11-21T05:21:03;33.50;;;19.00;;
12151;SDS011;6139;51.274;7.128;2022-11-21T05:22:04;34.83;;;18.77;;
12151;SDS011;6139;51.274;7.128;2022-11-21T05:23:06;36.17;;;19.50;;
12151;SDS011;6139;51.274;7.128;2022-11-21T05:24:07;40.10;;;20.57;;
12151;SDS011;6139;51.274;7.128;2022-11-21T05:25:09;35.23;;;19.33;;
12151;SDS011;6139;51.274;7.128;2022-11-21T05:26:10;39.77;;;20.20;;
12151;SDS011;6139;51.274;7.128;2022-11-21T05:27:12;37.50;;;18.40;;
12151;SDS011;6139;51.274;7.128;2022-11-21T05:28:12;37.60;;;19.40;;
12151;SDS011;6139;51.274;7.128;2022-11-21T05:29:14;38.50;;;20.13;;
12151;SDS011;6139;51.274;7.128;2022-11-21T05:30:17;36.57;;;19.73;;
12151;SDS011;6139;51.274;7.128;2022-11-21T05:31:19;33.90;;;19.00;;
12151;SDS011;6139;51.274;7.128;2022-11-21T05:32:20;38.77;;;20.20;;
12151;SDS011;6139;51.274;7.128;2022-11-21T05:33:22;39.20;;;20.73;;
12151;SDS011;6139;51.274;7.128;2022-11-21T05:34:23;38.60;;;19.80;;
12151;SDS011;6139;51.274;7.128;2022-11-21T05:35:25;40.53;;;20.37;;
12151;SDS011;6139;51.274;7.128;2022-11-21T05:36:26;35.00;;;20.37;;
12151;SDS011;6139;51.274;7.128;2022-11-21T05:37:28;38.33;;;20.13;;
12151;SDS011;6139;51.274;7.128;2022-11-21T05:38:29;37.97;;;20.47;;
12151;SDS011;6139;51.274;7.128;2022-11-21T05:39:31;35.50;;;20.87;;
12151;SDS011;6139;51.274;7.128;2022-11-21T05:40:32;42.13;;;20.97;;
12151;SDS011;6139;51.274;7.128;2022-11-21T05:41:33;40.63;;;21.07;;
12151;SDS011;6139;51.274;7.128;2022-11-21T05:42:37;38.83;;;20.03;;
12151;SDS011;6139;51.274;7.128;2022-11-21T05:43:57;41.10;;;20.10;;
12151;SDS011;6139;51.274;7.128;2022-11-21T05:44:59;41.33;;;19.83;;
12151;SDS011;6139;51.274;7.128;2022-11-21T05:46:01;42.87;;;21.27;;
12151;SDS011;6139;51.274;7.128;2022-11-21T05:47:03;36.53;;;19.40;;
12151;SDS011;6139;51.274;7.128;2022-11-21T05:48:04;38.20;;;18.97;;
12151;SDS011;6139;51.274;7.128;2022-11-21T05:49:07;42.40;;;20.63;;
12151;SDS011;6139;51.274;7.128;2022-11-21T05:50:09;37.80;;;19.90;;
12151;SDS011;6139;51.274;7.128;2022-11-21T05:51:10;39.30;;;20.67;;
12151;SDS011;6139;51.274;7.128;2022-11-21T05:52:12;38.40;;;20.53;;
12151;SDS011;6139;51.274;7.128;2022-11-21T05:53:13;39.60;;;19.80;;
12151;SDS011;6139;51.274;7.128;2022-11-21T05:54:15;36.83;;;20.03;;
12151;SDS011;6139;51.274;7.128;2022-11-21T05:55:16;36.47;;;19.87;;
12151;SDS011;6139;51.274;7.128;2022-11-21T05:56:18;39.57;;;21.03;;
12151;SDS011;6139;51.274;7.128;2022-11-21T05:57:20;40.87;;;21.40;;
12151;SDS011;6139;51.274;7.128;2022-11-21T05:58:21;39.43;;;19.47;;
12151;SDS011;6139;51.274;7.128;2022-11-21T05:59:23;42.43;;;21.27;;
12151;SDS011;6139;51.274;7.128;2022-11-21T06:00:24;40.87;;;20.63;;
12151;SDS011;6139;51.274;7.128;2022-11-21T06:01:27;36.03;;;19.73;;
12151;SDS011;6139;51.274;7.128;2022-11-21T06:02:47;38.93;;;20.60;;
12151;SDS011;6139;51.274;7.128;2022-11-21T06:04:07;41.07;;;19.87;;
12151;SDS011;6139;51.274;7.128;2022-11-21T06:05:09;41.60;;;20.83;;
12151;SDS011;6139;51.274;7.128;2022-11-21T06:06:11;37.10;;;18.97;;
12151;SDS011;6139;51.274;7.128;2022-11-21T06:07:14;39.67;;;19.77;;
12151;SDS011;6139;51.274;7.128;2022-11-21T06:08:15;35.80;;;19.47;;
12151;SDS011;6139;51.274;7.128;2022-11-21T06:09:17;39.00;;;19.63;;
12151;SDS011;6139;51.274;7.128;2022-11-21T06:10:19;43.13;;;21.30;;
12151;SDS011;6139;51.274;7.128;2022-11-21T06:11:20;38.73;;;19.53;;
12151;SDS011;6139;51.274;7.128;2022-11-21T06:12:22;39.20;;;20.53;;